Marlow, Oklahoma
Current Conditions -  °F | °C
As of 9:35 AM on Monday 22 Dec 2014 (Local Time) from KDUC Reporting Station
NA  
Wind Chill:   Ceiling: NA
Heat Index:   Visibility: NA
Dew Point:   Wind: 6mph
Humidity: 100%   Direction: 350°N
Pressure: 29.6"   Gusts: NA
Location:  34.65°N, 97.96°W
Report Text: KDUC 221535Z AUTO 35005KT 08/08 A2960 RMK AO2 PWINO
Loading
Personal Weather Stations






























Interactive Weather Map New forecast layout! Learn more

10-Day Weather Forecast

Advertisements
Track Severe Weather on mobile